createdAt,value
2017-11-01T00:03:00.747Z,91.90
2017-11-01T00:06:02.294Z,91.90
2017-11-01T00:09:03.799Z,91.90
2017-11-01T00:12:06.095Z,92.10
2017-11-01T00:15:07.610Z,92.00
2017-11-01T00:18:09.218Z,92.10
2017-11-01T00:21:10.719Z,91.90
2017-11-01T00:24:12.355Z,92.10
2017-11-01T00:27:14.688Z,92.10
2017-11-01T00:30:16.236Z,92.20
2017-11-01T00:33:17.809Z,91.80
2017-11-01T00:36:19.360Z,91.70
2017-11-01T00:39:21.004Z,92.00
2017-11-01T00:42:22.617Z,92.00
2017-11-01T00:45:24.217Z,92.30
2017-11-01T00:48:26.539Z,92.00
2017-11-01T00:51:28.121Z,91.90
2017-11-01T00:54:30.449Z,92.00
2017-11-01T00:57:32.070Z,92.00
2017-11-01T01:00:34.364Z,92.10
2017-11-01T01:03:35.974Z,92.10
2017-11-01T01:06:37.606Z,92.40
2017-11-01T01:09:39.126Z,92.50
2017-11-01T01:12:40.692Z,92.30
2017-11-01T01:15:42.310Z,92.30
2017-11-01T01:18:44.601Z,92.50
2017-11-01T01:21:46.202Z,92.50
2017-11-01T01:24:47.772Z,92.70
2017-11-01T01:27:49.355Z,92.70
2017-11-01T01:30:51.717Z,92.60
2017-11-01T01:33:54.042Z,92.90
2017-11-01T01:36:55.618Z,92.80
2017-11-01T01:39:57.238Z,92.70
2017-11-01T01:42:58.827Z,92.70
2017-11-01T01:46:00.451Z,92.90
2017-11-01T01:49:02.059Z,92.80
2017-11-01T01:52:03.619Z,92.60
2017-11-01T01:55:05.208Z,92.90
2017-11-01T01:58:06.763Z,92.90
2017-11-01T02:01:08.437Z,92.80
2017-11-01T02:04:10.267Z,92.60
2017-11-01T02:07:12.678Z,92.80
2017-11-01T02:10:14.370Z,92.80
2017-11-01T02:13:15.965Z,92.80
2017-11-01T02:16:17.566Z,92.80
2017-11-01T02:19:19.227Z,92.80
2017-11-01T02:22:20.884Z,92.90
2017-11-01T02:25:22.502Z,92.90
2017-11-01T02:28:24.149Z,93.00
2017-11-01T02:31:26.503Z,92.70
2017-11-01T02:34:28.861Z,92.70
2017-11-01T02:37:30.539Z,92.70
2017-11-01T02:40:32.195Z,92.90
2017-11-01T02:43:34.632Z,92.90
2017-11-01T02:46:36.324Z,92.90
2017-11-01T02:49:37.914Z,92.80
2017-11-01T02:55:48.632Z,92.70
2017-11-01T02:58:50.324Z,92.70
2017-11-01T03:01:52.662Z,92.90
2017-11-01T03:04:54.300Z,92.80
2017-11-01T03:07:55.936Z,92.80
2017-11-01T03:10:57.563Z,92.90
2017-11-01T03:13:59.168Z,92.60
2017-11-01T03:17:00.938Z,92.40
2017-11-01T03:20:02.524Z,92.70
2017-11-01T03:23:04.147Z,92.60
2017-11-01T03:26:05.769Z,92.60
2017-11-01T03:29:08.111Z,92.70
2017-11-01T03:32:09.752Z,92.70
2017-11-01T03:35:11.353Z,92.80
2017-11-01T03:38:12.975Z,92.90
2017-11-01T03:41:14.615Z,92.80
2017-11-01T03:44:16.326Z,92.90
2017-11-01T03:47:17.945Z,93.00
2017-11-01T03:50:19.608Z,93.00
2017-11-01T03:53:21.260Z,93.10
2017-11-01T03:56:22.895Z,93.20
2017-11-01T03:59:24.592Z,93.40
2017-11-01T04:02:26.152Z,93.40
2017-11-01T04:05:28.639Z,93.40
2017-11-01T04:08:30.883Z,93.50
2017-11-01T04:11:32.510Z,93.40
2017-11-01T04:14:34.149Z,93.30
2017-11-01T04:17:35.716Z,93.40
2017-11-01T04:20:37.290Z,93.50
2017-11-01T04:23:38.814Z,93.40
2017-11-01T04:26:40.343Z,93.60
2017-11-01T04:29:42.689Z,93.60
2017-11-01T04:32:44.273Z,93.40
2017-11-01T04:35:46.632Z,93.60
2017-11-01T04:38:48.241Z,93.50
2017-11-01T04:41:49.770Z,93.50
2017-11-01T04:44:51.367Z,93.70
2017-11-01T04:47:52.957Z,93.60
2017-11-01T04:50:55.238Z,93.70
2017-11-01T04:53:57.547Z,93.80
2017-11-01T04:56:59.126Z,93.80
2017-11-01T05:00:02.591Z,93.90
2017-11-01T05:03:05.167Z,93.80
2017-11-01T05:06:09.751Z,93.80
2017-11-01T05:09:11.406Z,93.90
2017-11-01T05:12:13.859Z,93.80
2017-11-01T05:15:15.469Z,94.00
2017-11-01T05:18:17.771Z,93.80
2017-11-01T05:21:19.358Z,93.80
2017-11-01T05:24:20.983Z,93.90
2017-11-01T05:27:22.525Z,93.90
2017-11-01T05:30:24.150Z,93.90
2017-11-01T05:33:26.458Z,93.80
2017-11-01T05:36:28.100Z,93.70
2017-11-01T05:39:30.399Z,93.80
2017-11-01T05:42:31.974Z,93.70
2017-11-01T05:45:33.609Z,93.80
2017-11-01T05:48:35.198Z,93.80
2017-11-01T05:51:36.786Z,93.80
2017-11-01T05:54:39.043Z,94.20
2017-11-01T06:00:48.955Z,93.90
2017-11-01T06:03:50.491Z,93.80
2017-11-01T06:06:52.023Z,93.90
2017-11-01T06:09:53.570Z,93.90
2017-11-01T06:12:55.199Z,93.80
2017-11-01T06:15:56.831Z,94.00
2017-11-01T06:18:58.410Z,93.90
2017-11-01T06:21:59.971Z,93.80
2017-11-01T06:25:01.573Z,94.00
2017-11-01T06:28:03.900Z,94.00
2017-11-01T06:31:05.502Z,93.90
2017-11-01T06:34:07.944Z,94.20
2017-11-01T06:37:09.550Z,94.00
2017-11-01T06:40:11.130Z,93.80
2017-11-01T06:43:12.723Z,93.80
2017-11-01T06:46:14.380Z,94.00
2017-11-01T06:49:15.999Z,93.80
2017-11-01T06:52:17.595Z,93.80
2017-11-01T06:55:19.127Z,93.70
2017-11-01T06:58:20.674Z,93.90
2017-11-01T07:04:30.643Z,93.80
2017-11-01T07:07:32.228Z,93.90
2017-11-01T07:10:33.776Z,93.80
2017-11-01T07:13:35.432Z,93.60
2017-11-01T07:16:37.033Z,93.40
2017-11-01T07:19:38.629Z,93.30
2017-11-01T07:22:40.265Z,92.90
2017-11-01T07:25:41.908Z,93.20
2017-11-01T07:28:43.481Z,93.20
2017-11-01T07:31:45.111Z,93.10
2017-11-01T07:34:46.823Z,93.30
2017-11-01T07:37:49.164Z,93.10
2017-11-01T07:40:50.880Z,93.00
2017-11-01T07:43:53.244Z,93.10
2017-11-01T07:46:55.610Z,93.00
2017-11-01T07:49:57.208Z,92.90
2017-11-01T07:52:58.803Z,92.80
2017-11-01T07:56:00.454Z,93.00
2017-11-01T07:59:02.005Z,92.90
2017-11-01T08:02:03.663Z,92.50
2017-11-01T08:05:05.208Z,92.80
2017-11-01T08:08:06.848Z,92.90
2017-11-01T08:11:08.420Z,92.40
2017-11-01T08:14:10.022Z,92.30
2017-11-01T08:17:11.613Z,92.30
2017-11-01T08:20:13.208Z,92.40
2017-11-01T08:23:14.848Z,92.20
2017-11-01T08:26:16.434Z,92.00
2017-11-01T08:29:18.027Z,92.10
2017-11-01T08:32:19.584Z,92.30
2017-11-01T08:35:21.942Z,92.00
2017-11-01T08:38:24.277Z,92.00
2017-11-01T08:41:25.975Z,92.10
2017-11-01T08:44:28.345Z,92.20
2017-11-01T08:47:29.934Z,92.10
2017-11-01T08:50:31.667Z,92.20
2017-11-01T08:53:34.077Z,92.00
2017-11-01T08:56:35.704Z,91.90
2017-11-01T08:59:38.032Z,92.00
2017-11-01T09:02:39.711Z,92.00
2017-11-01T09:05:41.333Z,92.00
2017-11-01T09:08:42.913Z,91.80
2017-11-01T09:11:44.516Z,91.70
2017-11-01T09:14:46.113Z,91.70
2017-11-01T09:17:47.835Z,91.80
2017-11-01T09:20:49.349Z,92.00
2017-11-01T09:23:50.896Z,91.90
2017-11-01T09:26:52.468Z,91.50
2017-11-01T09:29:54.793Z,91.50
2017-11-01T09:32:57.414Z,91.40
2017-11-01T09:35:59.004Z,91.40
2017-11-01T09:39:00.704Z,91.60
2017-11-01T09:42:02.273Z,91.20
2017-11-01T09:45:03.916Z,91.50
2017-11-01T09:48:05.476Z,91.40
2017-11-01T09:51:07.018Z,91.40
2017-11-01T09:54:08.565Z,91.10
2017-11-01T09:57:10.230Z,91.20
2017-11-01T10:00:11.787Z,90.60
2017-11-01T10:03:13.326Z,90.60
2017-11-01T10:06:14.950Z,91.00
2017-11-01T10:09:17.198Z,90.40
2017-11-01T10:12:18.786Z,90.20
2017-11-01T10:15:20.338Z,90.50
2017-11-01T10:18:21.895Z,90.40
2017-11-01T10:21:24.283Z,89.90
2017-11-01T10:24:26.560Z,89.40
2017-11-01T10:27:28.890Z,90.00
2017-11-01T10:30:30.498Z,90.00
2017-11-01T10:33:32.083Z,89.50
2017-11-01T10:36:33.662Z,89.90
2017-11-01T10:39:35.284Z,89.50
2017-11-01T10:42:36.876Z,89.20
2017-11-01T10:45:38.467Z,89.10
2017-11-01T10:48:40.827Z,90.00
2017-11-01T10:51:43.152Z,89.20
2017-11-01T10:54:44.754Z,89.40
2017-11-01T10:57:46.311Z,89.20
2017-11-01T11:00:47.931Z,89.40
2017-11-01T11:03:49.506Z,88.70
2017-11-01T11:06:51.118Z,88.40
2017-11-01T11:09:52.790Z,88.50
2017-11-01T11:12:54.347Z,88.30
2017-11-01T11:15:55.977Z,88.30
2017-11-01T11:18:57.527Z,87.30
2017-11-01T11:21:59.169Z,87.50
2017-11-01T11:25:01.517Z,86.30
2017-11-01T11:28:03.135Z,86.20
2017-11-01T11:31:04.717Z,86.40
2017-11-01T11:34:06.820Z,85.60
2017-11-01T11:37:08.516Z,86.70
2017-11-01T11:40:10.140Z,87.10
2017-11-01T11:43:12.748Z,86.60
2017-11-01T11:46:14.443Z,86.50
2017-11-01T11:49:16.245Z,87.00
2017-11-01T11:52:17.880Z,86.80
2017-11-01T11:55:20.342Z,86.80
2017-11-01T11:58:23.016Z,87.10
2017-11-01T12:01:24.622Z,87.10
2017-11-01T12:04:26.242Z,86.30
2017-11-01T12:07:28.582Z,87.50
2017-11-01T12:10:30.229Z,87.30
2017-11-01T12:13:31.782Z,86.90
2017-11-01T12:16:33.399Z,86.60
2017-11-01T12:19:35.019Z,86.40
2017-11-01T12:22:36.635Z,86.70
2017-11-01T12:25:38.866Z,85.60
2017-11-01T12:28:41.343Z,85.50
2017-11-01T12:31:42.926Z,85.20
2017-11-01T12:34:44.597Z,84.60
2017-11-01T12:37:46.203Z,85.20
2017-11-01T12:40:47.795Z,85.80
2017-11-01T12:43:49.439Z,84.70
2017-11-01T12:46:51.093Z,85.30
2017-11-01T12:49:53.444Z,84.00
2017-11-01T12:52:55.057Z,84.10
2017-11-01T12:55:56.607Z,83.50
2017-11-01T12:58:58.539Z,84.90
2017-11-01T13:02:00.167Z,82.60
2017-11-01T13:05:01.785Z,81.20
2017-11-01T13:08:03.367Z,81.00
2017-11-01T13:11:04.997Z,80.40
2017-11-01T13:14:06.627Z,79.90
2017-11-01T13:17:08.994Z,79.80
2017-11-01T13:20:10.606Z,79.70
2017-11-01T13:23:12.158Z,80.40
2017-11-01T13:26:13.758Z,79.60
2017-11-01T13:29:16.138Z,80.70
2017-11-01T13:32:18.480Z,80.40
2017-11-01T13:35:20.027Z,80.30
2017-11-01T13:38:21.619Z,81.00
2017-11-01T13:41:24.029Z,79.30
2017-11-01T13:44:25.628Z,78.90
2017-11-01T13:47:27.173Z,78.70
2017-11-01T13:50:28.791Z,78.00
2017-11-01T13:53:30.502Z,78.10
2017-11-01T13:56:33.091Z,79.60
2017-11-01T13:59:35.429Z,81.30
2017-11-01T14:05:46.087Z,78.00
2017-11-01T14:08:47.778Z,77.80
2017-11-01T14:11:51.532Z,77.10
2017-11-01T14:14:53.977Z,78.20
2017-11-01T14:17:56.047Z,78.20
2017-11-01T14:20:58.757Z,78.60
2017-11-01T14:24:01.183Z,78.40
2017-11-01T14:27:03.957Z,77.90
2017-11-01T14:30:05.933Z,80.90
2017-11-01T14:33:07.568Z,79.50
2017-11-01T14:36:09.231Z,79.30
2017-11-01T14:39:10.839Z,79.10
2017-11-01T14:42:14.298Z,81.30
2017-11-01T14:45:16.045Z,80.30
2017-11-01T14:48:17.686Z,81.20
2017-11-01T14:51:19.298Z,80.50
2017-11-01T14:54:20.971Z,83.10
2017-11-01T14:57:22.645Z,79.60
2017-11-01T15:00:24.435Z,80.90
2017-11-01T15:03:27.037Z,84.30
2017-11-01T15:06:28.987Z,84.50
2017-11-01T15:09:31.087Z,85.20
2017-11-01T15:12:32.765Z,85.70
2017-11-01T15:15:34.547Z,86.50
2017-11-01T15:18:36.191Z,86.80
2017-11-01T15:21:38.732Z,88.20
2017-11-01T15:24:40.450Z,87.90
2017-11-01T15:27:42.101Z,89.30
2017-11-01T15:30:43.787Z,89.80
2017-11-01T15:33:45.377Z,90.00
2017-11-01T15:36:47.909Z,90.20
2017-11-01T15:39:49.535Z,90.30
2017-11-01T15:42:51.092Z,90.40
2017-11-01T15:45:53.442Z,90.60
2017-11-01T15:48:55.119Z,90.40
2017-11-01T15:51:56.776Z,90.80
2017-11-01T15:54:59.138Z,90.60
2017-11-01T15:58:00.637Z,90.50
2017-11-01T16:01:02.264Z,90.60
2017-11-01T16:04:04.681Z,90.00
2017-11-01T16:07:06.286Z,89.90
2017-11-01T16:10:07.903Z,90.30
2017-11-01T16:13:19.631Z,90.30
2017-11-01T16:16:21.445Z,90.30
2017-11-01T16:19:22.974Z,90.40
2017-11-01T16:22:24.785Z,90.40
2017-11-01T16:25:26.358Z,90.40
2017-11-01T16:28:27.987Z,90.30
2017-11-01T16:31:29.515Z,90.10
2017-11-01T16:34:31.158Z,90.10
2017-11-01T16:37:32.722Z,90.00
2017-11-01T16:40:34.380Z,90.00
2017-11-01T16:43:36.086Z,89.60
2017-11-01T16:46:37.823Z,89.50
2017-11-01T16:49:39.415Z,89.50
2017-11-01T16:55:49.070Z,89.50
2017-11-01T16:58:50.635Z,89.80
2017-11-01T17:01:52.161Z,90.00
2017-11-01T17:04:53.697Z,89.40
2017-11-01T17:07:55.306Z,89.30
2017-11-01T17:10:56.829Z,88.90
2017-11-01T17:13:58.393Z,88.90
2017-11-01T17:16:59.921Z,88.20
2017-11-01T17:20:01.474Z,87.50
2017-11-01T17:23:03.051Z,86.50
2017-11-01T17:26:04.626Z,86.70
2017-11-01T17:29:06.177Z,86.40
2017-11-01T17:32:08.243Z,86.20
2017-11-01T17:35:09.769Z,86.20
2017-11-01T17:38:11.456Z,85.30
2017-11-01T17:41:13.140Z,85.60
2017-11-01T17:44:14.803Z,85.20
2017-11-01T17:47:16.473Z,84.10
2017-11-01T17:50:18.843Z,83.50
2017-11-01T17:53:21.000Z,83.40
2017-11-01T17:56:22.550Z,83.80
2017-11-01T17:59:24.129Z,83.20
2017-11-01T18:02:26.515Z,83.20
2017-11-01T18:05:28.355Z,83.40
2017-11-01T18:08:29.973Z,82.00
2017-11-01T18:11:31.553Z,83.60
2017-11-01T18:14:33.371Z,82.70
2017-11-01T18:17:38.974Z,81.20
2017-11-01T18:20:40.494Z,81.00
2017-11-01T18:23:42.910Z,80.30
2017-11-01T18:26:45.819Z,80.20
2017-11-01T18:29:48.236Z,80.60
2017-11-01T18:32:50.507Z,81.00
2017-11-01T18:35:53.123Z,80.00
2017-11-01T18:38:54.859Z,80.00
2017-11-01T18:41:56.426Z,80.40
2017-11-01T18:44:58.437Z,79.70
2017-11-01T18:48:01.543Z,80.00
2017-11-01T18:51:05.347Z,80.40
2017-11-01T18:54:09.319Z,79.90
2017-11-01T18:57:11.069Z,79.80
2017-11-01T19:00:13.634Z,80.60
2017-11-01T19:03:15.309Z,80.50
2017-11-01T19:06:16.883Z,81.20
2017-11-01T19:09:18.586Z,81.00
2017-11-01T19:12:21.018Z,82.30
2017-11-01T19:15:24.209Z,81.30
2017-11-01T19:18:26.981Z,82.70
2017-11-01T19:21:29.998Z,82.60
2017-11-01T19:24:31.699Z,82.20
2017-11-01T19:27:33.739Z,82.70
2017-11-01T19:30:35.796Z,81.20
2017-11-01T19:33:37.480Z,81.70
2017-11-01T19:36:41.318Z,82.50
2017-11-01T19:39:44.105Z,82.50
2017-11-01T19:42:46.742Z,82.50
2017-11-01T19:45:48.330Z,82.40
2017-11-01T19:48:51.273Z,83.50
2017-11-01T19:51:53.851Z,83.00
2017-11-01T19:54:56.918Z,83.00
2017-11-01T19:57:58.466Z,83.80
2017-11-01T20:01:00.134Z,83.80
2017-11-01T20:04:03.159Z,82.20
2017-11-01T20:07:06.792Z,83.50
2017-11-01T20:10:10.891Z,81.90
2017-11-01T20:13:13.692Z,82.00
2017-11-01T20:16:15.499Z,82.50
2017-11-01T20:19:18.899Z,81.60
2017-11-01T20:22:21.974Z,81.80
2017-11-01T20:25:24.082Z,83.10
2017-11-01T20:28:26.062Z,81.30
2017-11-01T20:31:28.221Z,81.20
2017-11-01T20:34:29.876Z,81.10
2017-11-01T20:37:31.710Z,81.10
2017-11-01T20:40:33.478Z,79.40
2017-11-01T20:43:36.120Z,79.70
2017-11-01T20:46:38.710Z,80.10
2017-11-01T20:49:40.303Z,80.00
2017-11-01T20:52:41.854Z,79.00
2017-11-01T20:55:43.461Z,79.70
2017-11-01T20:58:46.888Z,79.60
2017-11-01T21:01:48.428Z,79.50
2017-11-01T21:04:50.902Z,79.60
2017-11-01T21:07:52.466Z,79.50
2017-11-01T21:10:54.956Z,79.60
2017-11-01T21:13:56.707Z,79.40
2017-11-01T21:16:58.421Z,79.50
2017-11-01T21:20:00.086Z,90.70
2017-11-01T21:23:01.620Z,79.30
2017-11-01T21:26:03.250Z,67.10
2017-11-01T21:29:04.915Z,72.40
2017-11-01T21:32:06.543Z,76.20
2017-11-01T21:35:08.005Z,77.40
2017-11-01T21:38:10.311Z,78.40
2017-11-01T21:41:11.843Z,78.40
2017-11-01T21:44:13.356Z,77.70
2017-11-01T21:47:14.984Z,78.80
2017-11-01T21:50:16.486Z,78.60
2017-11-01T21:53:17.936Z,78.70
2017-11-01T21:56:20.240Z,79.80
2017-11-01T21:59:21.766Z,78.90
2017-11-01T22:02:24.031Z,79.40
2017-11-01T22:05:25.445Z,79.30
2017-11-01T22:08:26.929Z,79.70
2017-11-01T22:11:28.502Z,80.00
2017-11-01T22:14:30.782Z,79.00
2017-11-01T22:17:33.164Z,77.80
2017-11-01T22:20:34.682Z,77.70
2017-11-01T22:23:36.181Z,78.00
2017-11-01T22:26:37.697Z,78.30
2017-11-01T22:29:39.204Z,78.00
2017-11-01T22:32:40.683Z,77.30
2017-11-01T22:35:42.200Z,78.20
2017-11-01T22:38:43.644Z,78.50
2017-11-01T22:41:45.109Z,79.10
2017-11-01T22:44:46.699Z,78.30
2017-11-01T22:47:48.268Z,77.50
2017-11-01T22:50:49.756Z,78.80
2017-11-01T22:53:51.318Z,77.80
2017-11-01T22:56:52.924Z,77.60
2017-11-01T22:59:54.398Z,77.60
2017-11-01T23:02:56.577Z,77.80
2017-11-01T23:05:58.847Z,77.20
2017-11-01T23:09:00.409Z,77.10
2017-11-01T23:12:01.916Z,77.80
2017-11-01T23:15:03.440Z,76.30
2017-11-01T23:18:04.958Z,76.10
2017-11-01T23:21:06.498Z,77.40
2017-11-01T23:24:08.042Z,76.80
2017-11-01T23:27:09.541Z,76.80
2017-11-01T23:30:10.966Z,75.90
2017-11-01T23:33:13.213Z,76.40
2017-11-01T23:36:14.739Z,76.10
2017-11-01T23:39:16.237Z,76.10
2017-11-01T23:42:17.703Z,76.40
2017-11-01T23:45:20.118Z,76.00
2017-11-01T23:48:21.633Z,75.90
2017-11-01T23:51:23.836Z,75.80
2017-11-01T23:54:25.322Z,75.80
2017-11-01T23:57:26.797Z,76.30
